Time;durP1;ratioP1;P1;durP2;ratioP2;P2;SDS_P1;SDS_P2;PMS_P1;PMS_P2;Temp;Humidity;BMP_temperature;BMP_pressure;BME280_temperature;BME280_humidity;BME280_pressure;Samples;Min_cycle;Max_cycle;Signal;HPM_P1;HPM_P2
2023/10/23 00:02:12;;;;;;;2.17;1.30;;;23.40;33.80;;;;;;5047650;28;20531;-73
2023/10/23 00:04:40;;;;;;;3.00;1.00;;;23.60;33.40;;;;;;5045868;28;20195;-68
2023/10/23 00:07:07;;;;;;;2.63;0.80;;;23.50;33.30;;;;;;5042763;28;20191;-70
2023/10/23 00:09:36;;;;;;;1.90;0.70;;;23.50;33.00;;;;;;5039993;28;20199;-70
2023/10/23 00:12:03;;;;;;;3.50;0.70;;;23.60;32.80;;;;;;5046774;28;20195;-71
2023/10/23 00:14:31;;;;;;;2.80;0.80;;;23.80;33.20;;;;;;5043721;28;20238;-70
2023/10/23 00:16:58;;;;;;;2.83;0.60;;;24.00;32.00;;;;;;5046362;28;20700;-69
2023/10/23 00:19:25;;;;;;;6.80;0.80;;;24.00;31.80;;;;;;5045236;28;20207;-67
2023/10/23 00:21:53;;;;;;;3.03;0.90;;;24.30;31.50;;;;;;5047035;28;20180;-72
2023/10/23 00:24:21;;;;;;;2.00;0.77;;;24.30;30.80;;;;;;5047119;28;20270;-68
2023/10/23 00:26:49;;;;;;;19.87;2.27;;;24.30;30.10;;;;;;5046264;28;20706;-68
2023/10/23 00:29:16;;;;;;;2.03;0.63;;;24.30;30.60;;;;;;5047532;28;20635;-68
2023/10/23 00:31:44;;;;;;;3.80;0.93;;;24.40;30.80;;;;;;5044215;28;20176;-68
2023/10/23 00:34:11;;;;;;;2.57;0.80;;;24.50;30.30;;;;;;5042769;28;20180;-69
2023/10/23 00:36:38;;;;;;;2.20;0.93;;;24.50;30.90;;;;;;5043615;28;20199;-69
2023/10/23 00:39:06;;;;;;;1.57;0.80;;;24.50;30.90;;;;;;5043815;28;20227;-67
2023/10/23 00:41:34;;;;;;;2.50;0.80;;;24.20;31.40;;;;;;5043521;28;20187;-71
2023/10/23 00:44:01;;;;;;;1.97;0.80;;;24.50;31.60;;;;;;5044097;28;20659;-68
2023/10/23 00:46:30;;;;;;;5.50;0.83;;;24.60;31.30;;;;;;5044898;28;20187;-78
2023/10/23 00:48:58;;;;;;;4.20;1.10;;;24.50;31.00;;;;;;5049622;28;20278;-68
2023/10/23 00:51:27;;;;;;;3.23;0.80;;;24.60;30.50;;;;;;5047160;28;20190;-68
2023/10/23 00:53:55;;;;;;;3.40;0.70;;;24.70;31.20;;;;;;5048321;28;20220;-68
2023/10/23 00:56:23;;;;;;;3.20;1.00;;;25.00;31.10;;;;;;5049066;28;21068;-71
2023/10/23 00:58:50;;;;;;;2.00;0.77;;;25.10;30.10;;;;;;5048841;28;20239;-75
2023/10/23 01:01:18;;;;;;;3.33;0.70;;;24.90;30.30;;;;;;5048819;28;20184;-75
2023/10/23 01:03:45;;;;;;;4.00;0.70;;;24.80;30.80;;;;;;5047258;28;20547;-71
2023/10/23 01:06:13;;;;;;;4.20;0.97;;;24.90;30.60;;;;;;5047049;28;20200;-73
2023/10/23 01:08:41;;;;;;;2.10;0.80;;;25.00;30.00;;;;;;5047810;28;20203;-74
2023/10/23 01:11:08;;;;;;;4.93;0.80;;;24.80;30.70;;;;;;5051095;28;20552;-74
2023/10/23 01:13:35;;;;;;;1.03;0.60;;;25.20;30.30;;;;;;5048548;28;20251;-71
2023/10/23 01:16:03;;;;;;;5.67;0.90;;;25.20;29.20;;;;;;5046500;28;20216;-71
2023/10/23 01:18:30;;;;;;;2.17;0.80;;;25.20;29.20;;;;;;5049867;28;20303;-72
2023/10/23 01:20:57;;;;;;;1.97;0.80;;;25.50;29.20;;;;;;5045753;28;20200;-67
2023/10/23 01:23:32;;;;;;;2.03;0.70;;;25.90;28.90;;;;;;5049600;28;20218;-70
2023/10/23 01:26:00;;;;;;;2.23;0.80;;;25.90;28.30;;;;;;5051703;28;20194;-71
2023/10/23 01:28:27;;;;;;;1.70;0.80;;;25.80;28.90;;;;;;5051007;28;20218;-72
2023/10/23 01:37:45;;;;;;;2.90;0.90;;;26.40;27.50;;;;;;5029548;28;20208;-70
2023/10/23 01:40:12;;;;;;;2.83;0.90;;;26.60;27.70;;;;;;5032745;28;20212;-71
2023/10/23 01:42:43;;;;;;;4.20;0.90;;;26.60;26.70;;;;;;5032459;28;20220;-69
2023/10/23 01:45:11;;;;;;;4.00;0.73;;;26.50;26.90;;;;;;5035981;28;20193;-69
2023/10/23 01:47:38;;;;;;;4.33;1.10;;;26.60;27.20;;;;;;5031797;28;20184;-69
2023/10/23 01:50:06;;;;;;;4.20;1.00;;;27.00;27.00;;;;;;5031787;28;20188;-66
2023/10/23 01:52:34;;;;;;;4.03;0.70;;;26.80;27.10;;;;;;5032425;28;20195;-68
2023/10/23 01:55:01;;;;;;;3.77;0.93;;;26.80;26.20;;;;;;5032165;28;20189;-69
2023/10/23 01:57:29;;;;;;;3.70;1.10;;;27.00;26.20;;;;;;5032684;28;20181;-70
2023/10/23 02:00:04;;;;;;;2.73;0.97;;;26.60;26.60;;;;;;5031411;28;20217;-67
2023/10/23 02:02:33;;;;;;;2.90;1.10;;;27.00;27.10;;;;;;5031521;28;20192;-66
2023/10/23 02:05:00;;;;;;;4.23;1.00;;;27.30;26.20;;;;;;5028479;28;20238;-70
2023/10/23 02:07:28;;;;;;;2.20;0.90;;;27.50;25.50;;;;;;5035207;28;20196;-68
2023/10/23 02:09:56;;;;;;;5.67;1.00;;;27.70;25.30;;;;;;5030770;28;20258;-69
2023/10/23 02:12:25;;;;;;;1.83;0.70;;;27.70;25.30;;;;;;5030334;28;20184;-72
2023/10/23 02:14:53;;;;;;;2.57;0.70;;;27.80;25.40;;;;;;5030140;28;20181;-71
2023/10/23 02:17:21;;;;;;;3.23;0.87;;;27.50;24.80;;;;;;5032442;28;20192;-68
2023/10/23 02:19:48;;;;;;;3.13;0.73;;;27.60;25.00;;;;;;5031216;28;20354;-68
2023/10/23 02:22:17;;;;;;;2.90;0.90;;;27.80;24.90;;;;;;5032868;28;20184;-67
2023/10/23 02:24:45;;;;;;;4.90;1.23;;;28.00;25.60;;;;;;5033071;28;20192;-71
2023/10/23 02:27:13;;;;;;;5.53;1.07;;;27.60;25.30;;;;;;5033133;28;20319;-71
2023/10/23 02:29:40;;;;;;;2.50;0.97;;;27.40;25.20;;;;;;5031431;28;20192;-68
2023/10/23 02:32:09;;;;;;;1.67;0.97;;;28.00;24.80;;;;;;5031108;28;20664;-68
2023/10/23 02:34:37;;;;;;;4.20;1.00;;;27.90;24.60;;;;;;5034172;28;20306;-73
2023/10/23 02:37:04;;;;;;;3.80;1.00;;;28.30;24.70;;;;;;5045952;28;20319;-67
2023/10/23 02:39:32;;;;;;;8.23;1.00;;;28.50;23.70;;;;;;5051506;28;20228;-71
2023/10/23 02:41:59;;;;;;;4.40;1.23;;;28.60;28.20;;;;;;5048792;28;20184;-73
2023/10/23 02:44:27;;;;;;;2.83;0.53;;;28.40;29.50;;;;;;5048995;28;20187;-67
2023/10/23 02:46:55;;;;;;;3.80;0.90;;;28.60;23.60;;;;;;5079289;28;20184;-69
2023/10/23 02:49:23;;;;;;;11.17;1.07;;;28.80;23.20;;;;;;5046502;28;20184;-73
2023/10/23 02:51:50;;;;;;;3.00;0.90;;;28.70;25.90;;;;;;5051200;28;20180;-71
2023/10/23 02:54:18;;;;;;;6.17;0.90;;;28.60;24.30;;;;;;5052069;28;20257;-69
2023/10/23 02:56:45;;;;;;;3.03;0.80;;;28.60;23.50;;;;;;5050878;28;20654;-70
2023/10/23 02:59:13;;;;;;;7.00;1.30;;;28.80;23.10;;;;;;5053498;28;20215;-70
2023/10/23 03:01:40;;;;;;;5.63;1.10;;;28.80;27.40;;;;;;5051482;28;20215;-68
2023/10/23 03:04:07;;;;;;;6.17;1.30;;;27.90;29.50;;;;;;5051090;28;20183;-68
2023/10/23 03:06:35;;;;;;;4.70;1.20;;;28.00;29.50;;;;;;5052163;28;20234;-68
2023/10/23 03:09:03;;;;;;;6.07;1.97;;;28.50;27.80;;;;;;5051431;28;20199;-69
2023/10/23 03:11:31;;;;;;;5.37;1.23;;;28.70;28.60;;;;;;5044970;28;20190;-69
2023/10/23 03:13:58;;;;;;;3.33;1.00;;;29.10;28.50;;;;;;5051067;28;20192;-72
2023/10/23 03:16:26;;;;;;;3.20;1.17;;;29.00;27.40;;;;;;5053975;28;20211;-69
2023/10/23 03:18:54;;;;;;;8.53;1.47;;;29.40;27.00;;;;;;5048801;28;20219;-69
2023/10/23 03:21:21;;;;;;;4.00;1.35;;;29.90;26.10;;;;;;5051427;28;20180;-66
2023/10/23 03:23:49;;;;;;;2.72;1.00;;;30.60;25.70;;;;;;5049236;28;20184;-68
2023/10/23 03:26:16;;;;;;;7.78;1.02;;;30.60;25.30;;;;;;5044828;28;20176;-68
2023/10/23 03:28:43;;;;;;;3.65;1.40;;;30.10;25.40;;;;;;5048550;28;20187;-67
2023/10/23 03:31:11;;;;;;;3.60;1.10;;;30.30;24.90;;;;;;5050364;28;20365;-68
2023/10/23 03:33:40;;;;;;;7.05;1.55;;;29.60;27.60;;;;;;5048163;28;20806;-72
2023/10/23 03:36:07;;;;;;;8.30;1.27;;;28.80;29.60;;;;;;5046807;28;20223;-69
2023/10/23 03:38:34;;;;;;;4.82;3.08;;;28.00;31.10;;;;;;5046334;28;20688;-68
2023/10/23 03:41:02;;;;;;;8.10;1.17;;;28.60;31.40;;;;;;5047544;28;20227;-68
2023/10/23 03:43:30;;;;;;;6.40;1.42;;;29.00;30.50;;;;;;5045777;28;20223;-68
2023/10/23 03:46:02;;;;;;;6.17;1.47;;;29.40;30.40;;;;;;5049434;28;20196;-66
2023/10/23 03:48:30;;;;;;;3.65;1.30;;;28.90;30.40;;;;;;5049009;28;20270;-69
2023/10/23 03:51:01;;;;;;;8.03;1.83;;;29.10;30.70;;;;;;5049080;28;21378;-71
2023/10/23 03:53:28;;;;;;;4.70;1.70;;;29.00;30.50;;;;;;5050636;28;20180;-68
2023/10/23 03:55:56;;;;;;;3.47;1.30;;;28.80;30.70;;;;;;5045228;28;20285;-67
2023/10/23 03:58:24;;;;;;;10.85;1.25;;;29.00;31.90;;;;;;5049388;28;20216;-70
2023/10/23 04:00:54;;;;;;;4.07;1.50;;;29.40;31.20;;;;;;5049503;28;20294;-67
2023/10/23 04:03:23;;;;;;;4.20;1.33;;;29.30;31.60;;;;;;5047421;28;20187;-67
2023/10/23 04:05:52;;;;;;;4.15;1.42;;;28.80;31.80;;;;;;5047638;28;20184;-69
2023/10/23 04:08:19;;;;;;;7.18;1.00;;;29.10;31.50;;;;;;5049041;28;20184;-69
2023/10/23 04:10:48;;;;;;;6.45;1.42;;;28.90;31.30;;;;;;5048516;28;20188;-69
2023/10/23 04:13:18;;;;;;;2.80;1.35;;;29.00;30.70;;;;;;5045094;28;20322;-71
2023/10/23 04:15:56;;;;;;;4.20;1.45;;;29.20;30.90;;;;;;5049550;28;20180;-70
2023/10/23 04:18:26;;;;;;;8.98;1.60;;;28.90;32.00;;;;;;5045807;28;20208;-71
2023/10/23 04:21:03;;;;;;;4.40;0.95;;;28.90;31.00;;;;;;5047304;28;20286;-70
2023/10/23 04:23:31;;;;;;;4.43;1.27;;;29.20;30.90;;;;;;5049333;28;20203;-68
2023/10/23 04:25:58;;;;;;;5.50;1.57;;;29.40;30.60;;;;;;5048094;28;20184;-67
2023/10/23 04:28:26;;;;;;;3.97;1.17;;;29.60;30.60;;;;;;5046413;28;20188;-68
2023/10/23 04:30:55;;;;;;;3.25;1.55;;;29.60;31.10;;;;;;5048013;28;20179;-69
2023/10/23 04:33:23;;;;;;;6.93;1.48;;;29.60;31.50;;;;;;5050346;28;20191;-67
2023/10/23 04:35:52;;;;;;;4.13;1.35;;;29.50;32.10;;;;;;5049910;28;20230;-66
2023/10/23 04:38:19;;;;;;;4.63;1.25;;;30.20;31.80;;;;;;5049836;28;20215;-70
2023/10/23 04:40:46;;;;;;;3.85;1.10;;;30.30;31.40;;;;;;5050896;28;20184;-68
2023/10/23 04:43:14;;;;;;;4.68;1.20;;;30.20;30.60;;;;;;5050091;28;20175;-68
2023/10/23 04:45:41;;;;;;;5.20;1.30;;;30.00;31.30;;;;;;5050061;28;20187;-71
2023/10/23 04:48:09;;;;;;;5.88;1.40;;;30.20;31.10;;;;;;5046000;28;20184;-69
2023/10/23 04:50:38;;;;;;;4.10;1.17;;;29.60;32.30;;;;;;5045421;28;20180;-68
2023/10/23 04:53:06;;;;;;;4.15;1.42;;;29.10;33.10;;;;;;5049224;28;20188;-70
2023/10/23 04:55:41;;;;;;;6.20;1.20;;;29.20;32.40;;;;;;5052328;28;20297;-67
2023/10/23 04:58:09;;;;;;;4.82;1.70;;;29.60;31.70;;;;;;5067442;28;20175;-71
2023/10/23 05:00:38;;;;;;;3.97;1.00;;;29.50;32.10;;;;;;5050798;28;20268;-71
2023/10/23 05:03:06;;;;;;;6.90;1.40;;;28.90;33.20;;;;;;5053837;28;20180;-71
2023/10/23 05:05:35;;;;;;;4.45;1.02;;;28.80;33.50;;;;;;5052222;28;20176;-68
2023/10/23 05:08:06;;;;;;;8.13;1.10;;;28.90;33.80;;;;;;5054436;28;20207;-71
2023/10/23 05:10:34;;;;;;;4.47;0.98;;;29.40;31.90;;;;;;5051612;28;20191;-70
2023/10/23 05:13:03;;;;;;;2.50;0.90;;;29.30;31.50;;;;;;5052986;28;20607;-71
2023/10/23 05:15:31;;;;;;;4.43;1.08;;;28.80;32.60;;;;;;5046446;28;20187;-69
2023/10/23 05:17:58;;;;;;;2.50;1.05;;;28.90;32.50;;;;;;5053233;28;20281;-68
2023/10/23 05:20:25;;;;;;;4.97;1.33;;;29.90;30.70;;;;;;5050858;28;20200;-70
2023/10/23 05:22:52;;;;;;;3.63;1.10;;;29.80;30.20;;;;;;5076190;28;20186;-71
2023/10/23 05:25:20;;;;;;;2.85;1.10;;;29.80;30.20;;;;;;5051757;28;20195;-68
2023/10/23 05:27:47;;;;;;;4.35;1.00;;;29.30;31.10;;;;;;5045746;28;20291;-70
2023/10/23 05:30:14;;;;;;;3.33;1.20;;;28.80;32.80;;;;;;5054291;28;20206;-68
2023/10/23 05:32:43;;;;;;;2.42;1.02;;;29.30;33.10;;;;;;5051096;28;20689;-71
2023/10/23 05:35:11;;;;;;;3.58;1.15;;;29.20;33.80;;;;;;5053718;28;20182;-70
2023/10/23 05:37:39;;;;;;;4.25;0.90;;;29.00;34.10;;;;;;5053809;28;20180;-71
2023/10/23 05:40:07;;;;;;;4.00;1.13;;;28.00;34.50;;;;;;5053927;28;20212;-71
2023/10/23 05:42:34;;;;;;;6.17;1.37;;;27.90;34.30;;;;;;5045474;28;20188;-70
2023/10/23 05:45:02;;;;;;;11.17;1.00;;;27.90;34.10;;;;;;5050849;28;20234;-69
2023/10/23 05:47:30;;;;;;;4.47;1.10;;;27.80;35.30;;;;;;5053171;28;20192;-69
2023/10/23 05:49:57;;;;;;;5.13;1.33;;;28.80;33.90;;;;;;5050918;28;20182;-68
2023/10/23 05:52:24;;;;;;;3.90;1.07;;;29.10;33.50;;;;;;5052384;28;20246;-69
2023/10/23 05:54:52;;;;;;;4.23;1.57;;;28.80;34.90;;;;;;5050878;28;20369;-72
2023/10/23 05:57:19;;;;;;;2.38;1.10;;;28.30;35.60;;;;;;5051808;28;20176;-70
2023/10/23 05:59:47;;;;;;;3.40;1.30;;;28.30;36.40;;;;;;5047420;28;20226;-69
2023/10/23 06:02:15;;;;;;;2.85;0.95;;;28.20;36.70;;;;;;5051015;28;20176;-68
2023/10/23 06:04:45;;;;;;;3.70;1.30;;;28.40;37.20;;;;;;5053526;28;20188;-72
2023/10/23 06:07:12;;;;;;;2.97;1.03;;;28.30;37.20;;;;;;5051162;28;20539;-71
2023/10/23 06:09:40;;;;;;;1.90;0.93;;;27.90;38.00;;;;;;5049174;28;20179;-70
2023/10/23 06:12:09;;;;;;;5.17;1.10;;;27.70;38.10;;;;;;5051635;28;20665;-73
2023/10/23 06:14:37;;;;;;;2.60;1.07;;;27.50;39.50;;;;;;5051076;28;20646;-73
2023/10/23 06:17:04;;;;;;;3.10;1.10;;;28.60;36.60;;;;;;5048115;28;20524;-70
2023/10/23 06:19:31;;;;;;;5.07;1.17;;;28.90;36.00;;;;;;5051836;28;20302;-70
2023/10/23 06:21:59;;;;;;;3.43;1.00;;;28.60;36.60;;;;;;5051233;28;20180;-71
2023/10/23 06:24:27;;;;;;;2.77;1.00;;;28.30;36.50;;;;;;5048757;28;21392;-70
2023/10/23 06:26:55;;;;;;;5.33;1.10;;;27.80;37.80;;;;;;5049079;28;20386;-70
2023/10/23 06:29:23;;;;;;;2.27;0.70;;;28.40;36.80;;;;;;5049848;28;20184;-71
2023/10/23 06:31:50;;;;;;;2.97;1.00;;;27.70;38.10;;;;;;5050009;28;20176;-70
2023/10/23 06:34:18;;;;;;;2.50;1.00;;;27.30;39.30;;;;;;5052001;28;20186;-72
2023/10/23 06:36:45;;;;;;;3.23;1.07;;;27.10;40.40;;;;;;5052999;28;20215;-69
2023/10/23 06:39:16;;;;;;;2.63;1.10;;;27.00;40.20;;;;;;5052238;28;20215;-68
2023/10/23 06:41:43;;;;;;;4.10;1.20;;;27.20;39.20;;;;;;5050079;28;20642;-69
2023/10/23 06:44:11;;;;;;;3.40;1.17;;;26.90;39.50;;;;;;5051638;28;20187;-71
2023/10/23 06:46:38;;;;;;;4.50;0.93;;;26.90;39.70;;;;;;5053406;28;20555;-68
2023/10/23 06:49:05;;;;;;;3.10;1.20;;;27.30;39.60;;;;;;5053396;28;20192;-69
2023/10/23 06:51:33;;;;;;;4.03;0.93;;;27.70;39.90;;;;;;5053948;28;20186;-70
2023/10/23 06:54:00;;;;;;;3.67;0.90;;;27.50;39.30;;;;;;5054239;28;20195;-68
2023/10/23 06:56:28;;;;;;;5.30;1.10;;;27.50;39.40;;;;;;5054481;28;20264;-70
2023/10/23 06:58:55;;;;;;;1.83;1.07;;;27.40;40.70;;;;;;5054158;28;20211;-68
2023/10/23 07:01:24;;;;;;;5.80;0.93;;;27.90;39.00;;;;;;5052490;28;20665;-70
2023/10/23 07:03:52;;;;;;;6.77;1.17;;;27.70;39.60;;;;;;5053044;28;20218;-70
2023/10/23 07:06:19;;;;;;;2.17;1.00;;;27.30;40.20;;;;;;5048409;28;20215;-68
2023/10/23 07:08:46;;;;;;;9.27;6.00;;;27.20;40.30;;;;;;5049158;28;20175;-69
2023/10/23 07:11:23;;;;;;;9.37;1.77;;;26.60;40.70;;;;;;5050567;28;20207;-68
2023/10/23 07:13:53;;;;;;;5.40;1.00;;;26.20;41.90;;;;;;5053595;28;20187;-69
2023/10/23 07:16:20;;;;;;;3.57;0.90;;;25.60;43.40;;;;;;5050458;28;20180;-69
2023/10/23 07:18:48;;;;;;;3.10;1.17;;;26.30;42.10;;;;;;5050131;28;20216;-69
2023/10/23 07:21:15;;;;;;;4.93;1.00;;;26.40;41.90;;;;;;5047272;28;20180;-70
2023/10/23 07:23:43;;;;;;;4.63;1.30;;;26.70;41.20;;;;;;5056273;28;20619;-68
2023/10/23 07:26:12;;;;;;;5.70;0.90;;;26.30;42.20;;;;;;5047683;28;20245;-69
2023/10/23 07:28:40;;;;;;;2.87;0.90;;;25.80;43.00;;;;;;5054279;28;20665;-68
2023/10/23 07:31:08;;;;;;;3.13;1.10;;;25.50;44.00;;;;;;5050692;28;20683;-69
2023/10/23 07:33:36;;;;;;;4.60;1.20;;;24.70;45.90;;;;;;5047974;28;20172;-70
2023/10/23 07:36:09;;;;;;;4.43;1.43;;;23.90;46.80;;;;;;5050260;28;20247;-68
2023/10/23 07:38:40;;;;;;;6.47;1.30;;;23.50;48.70;;;;;;5052798;28;20569;-68
2023/10/23 07:41:09;;;;;;;5.17;1.20;;;23.30;49.70;;;;;;5046399;28;20250;-69
2023/10/23 07:43:36;;;;;;;5.67;1.13;;;23.00;50.50;;;;;;5048795;28;20236;-69
2023/10/23 07:46:10;;;;;;;5.13;1.13;;;22.60;52.50;;;;;;5050851;28;20657;-67
2023/10/23 07:48:38;;;;;;;4.07;1.30;;;22.50;52.00;;;;;;5049316;28;20191;-68
2023/10/23 07:51:05;;;;;;;3.77;1.30;;;22.40;52.80;;;;;;5080295;28;20186;-68
2023/10/23 07:53:35;;;;;;;7.70;1.27;;;22.30;53.40;;;;;;5049724;28;20728;-67
2023/10/23 07:56:05;;;;;;;5.50;1.30;;;22.30;53.50;;;;;;5048269;28;20616;-70
2023/10/23 07:58:33;;;;;;;5.07;1.80;;;22.30;53.60;;;;;;5049307;28;20287;-68
2023/10/23 08:01:13;;;;;;;3.27;1.10;;;22.30;53.90;;;;;;5047912;28;20227;-69
2023/10/23 08:03:41;;;;;;;4.50;1.60;;;22.30;53.80;;;;;;5051970;28;20283;-68
2023/10/23 08:06:10;;;;;;;4.50;1.30;;;22.30;54.10;;;;;;5052216;28;20208;-68
2023/10/23 08:08:39;;;;;;;6.03;1.93;;;22.20;54.00;;;;;;5051292;28;20235;-68
2023/10/23 08:11:08;;;;;;;4.43;1.67;;;22.00;54.20;;;;;;5051492;28;20183;-70
2023/10/23 08:13:36;;;;;;;8.87;1.50;;;22.20;54.20;;;;;;5050707;28;20184;-67
2023/10/23 08:16:04;;;;;;;4.33;1.53;;;22.20;54.00;;;;;;5050440;28;20179;-67
2023/10/23 08:18:34;;;;;;;5.13;1.40;;;22.00;54.20;;;;;;5048227;28;20690;-67
2023/10/23 08:21:08;;;;;;;2.93;1.27;;;22.00;54.60;;;;;;5048789;28;20650;-68
2023/10/23 08:23:35;;;;;;;4.17;1.33;;;22.00;54.40;;;;;;5049735;28;20255;-70
2023/10/23 08:26:03;;;;;;;8.63;1.73;;;21.90;54.70;;;;;;5046229;28;20184;-70
2023/10/23 08:28:31;;;;;;;4.23;1.50;;;21.80;55.00;;;;;;5047332;28;20287;-68
2023/10/23 08:30:58;;;;;;;6.43;1.97;;;21.80;54.90;;;;;;5053524;28;20192;-68
2023/10/23 08:33:26;;;;;;;4.13;1.67;;;21.80;55.00;;;;;;5052232;28;20654;-67
2023/10/23 08:35:53;;;;;;;5.60;2.00;;;21.80;55.20;;;;;;5054836;28;20686;-69
2023/10/23 08:38:20;;;;;;;6.63;1.60;;;21.80;55.30;;;;;;5055992;28;20188;-68
2023/10/23 08:40:49;;;;;;;5.43;1.97;;;21.80;55.60;;;;;;5057391;28;20195;-67
2023/10/23 08:43:16;;;;;;;3.97;1.67;;;21.80;55.90;;;;;;5055191;28;20188;-68
2023/10/23 08:45:44;;;;;;;3.67;1.53;;;21.80;56.20;;;;;;5060027;28;20187;-69
2023/10/23 08:48:13;;;;;;;5.93;2.07;;;21.80;56.60;;;;;;5059068;28;20637;-72
2023/10/23 08:50:42;;;;;;;6.07;1.47;;;21.60;57.40;;;;;;5061591;28;20206;-69
2023/10/23 08:53:11;;;;;;;5.37;1.23;;;21.60;57.60;;;;;;5052202;28;20254;-69
2023/10/23 08:55:38;;;;;;;6.27;1.70;;;21.50;58.20;;;;;;5055727;28;20192;-71
2023/10/23 08:58:06;;;;;;;7.20;2.13;;;21.50;58.80;;;;;;5050041;28;20263;-68
2023/10/23 09:00:34;;;;;;;6.77;1.50;;;21.50;58.90;;;;;;5051121;28;20711;-68
2023/10/23 09:03:03;;;;;;;4.73;1.57;;;21.40;59.20;;;;;;5050834;28;20624;-67
2023/10/23 09:05:30;;;;;;;4.90;1.40;;;21.40;59.30;;;;;;5049594;28;20260;-68
2023/10/23 09:07:58;;;;;;;9.73;1.53;;;21.40;59.60;;;;;;5048827;28;20195;-68
2023/10/23 09:10:26;;;;;;;3.77;1.47;;;21.30;59.90;;;;;;5048172;28;20180;-68
2023/10/23 09:13:00;;;;;;;7.00;1.90;;;21.30;59.90;;;;;;5039646;28;20215;-67
2023/10/23 09:15:30;;;;;;;7.40;1.57;;;21.30;59.90;;;;;;5038115;28;20274;-69
2023/10/23 09:17:59;;;;;;;4.27;1.33;;;21.30;60.20;;;;;;5053198;28;20210;-68
2023/10/23 09:20:26;;;;;;;6.43;1.43;;;21.30;61.30;;;;;;5053518;28;20246;-68
2023/10/23 09:22:55;;;;;;;5.17;1.40;;;21.20;61.50;;;;;;5048439;28;20193;-71
2023/10/23 09:25:24;;;;;;;9.97;1.57;;;21.20;62.30;;;;;;5051241;28;20249;-71
2023/10/23 09:27:52;;;;;;;5.50;1.60;;;21.20;62.70;;;;;;5053416;28;20214;-70
2023/10/23 09:30:23;;;;;;;4.83;1.93;;;21.10;63.30;;;;;;5054722;28;20226;-69
2023/10/23 09:32:55;;;;;;;8.73;2.57;;;21.20;63.50;;;;;;5050891;28;20230;-68
2023/10/23 09:35:28;;;;;;;6.33;1.57;;;21.10;64.10;;;;;;5053326;28;20794;-67
2023/10/23 09:37:59;;;;;;;5.33;1.63;;;21.00;64.30;;;;;;5050416;28;20594;-68
2023/10/23 09:40:29;;;;;;;3.93;1.60;;;21.00;64.70;;;;;;5053896;28;20306;-69
2023/10/23 09:43:00;;;;;;;6.67;1.37;;;21.00;65.00;;;;;;5062660;28;20250;-68
2023/10/23 09:45:30;;;;;;;6.27;1.60;;;21.00;65.00;;;;;;5052080;28;20784;-73
2023/10/23 09:47:59;;;;;;;10.00;1.83;;;21.00;65.20;;;;;;5052711;28;20271;-69
2023/10/23 09:50:28;;;;;;;6.53;1.63;;;20.90;65.40;;;;;;5054775;28;20188;-66
2023/10/23 09:52:57;;;;;;;5.27;1.87;;;20.90;65.70;;;;;;5047582;28;20271;-67
2023/10/23 09:55:30;;;;;;;6.27;1.47;;;20.90;65.90;;;;;;5051842;28;20259;-69
2023/10/23 09:58:01;;;;;;;7.27;1.70;;;20.90;65.60;;;;;;5050791;28;20172;-70
2023/10/23 10:00:29;;;;;;;9.50;1.90;;;20.90;66.10;;;;;;5051902;28;20583;-68
2023/10/23 10:03:04;;;;;;;4.77;1.67;;;20.80;66.30;;;;;;5051856;28;20180;-68
2023/10/23 10:05:44;;;;;;;7.50;2.03;;;20.80;67.00;;;;;;5052972;28;20187;-69
2023/10/23 10:08:21;;;;;;;3.87;1.60;;;20.80;67.40;;;;;;5050790;28;20195;-70
2023/10/23 10:10:50;;;;;;;4.70;1.67;;;20.80;67.80;;;;;;5047695;28;20187;-69
2023/10/23 10:13:22;;;;;;;6.90;1.43;;;20.70;68.10;;;;;;5044392;28;20192;-68
2023/10/23 10:15:51;;;;;;;6.73;1.40;;;20.70;68.20;;;;;;5052752;28;20187;-66
2023/10/23 10:18:18;;;;;;;12.90;1.77;;;20.70;68.40;;;;;;5046009;28;20184;-68
2023/10/23 10:20:54;;;;;;;3.90;1.80;;;20.70;68.60;;;;;;5052403;28;20179;-73
2023/10/23 10:23:22;;;;;;;8.83;1.57;;;20.70;68.60;;;;;;5049823;28;20590;-68
2023/10/23 10:25:50;;;;;;;8.40;1.30;;;20.70;68.60;;;;;;5047445;28;20327;-70
2023/10/23 10:28:18;;;;;;;8.80;1.93;;;20.60;68.60;;;;;;5046536;28;20188;-71
2023/10/23 10:30:50;;;;;;;6.73;1.50;;;20.70;68.90;;;;;;5048160;28;20643;-67
2023/10/23 10:33:20;;;;;;;4.13;1.47;;;20.60;68.90;;;;;;5046617;28;20945;-70
2023/10/23 10:35:56;;;;;;;6.77;1.50;;;20.60;68.80;;;;;;5051541;28;20303;-70
2023/10/23 10:38:25;;;;;;;6.13;1.33;;;20.60;69.00;;;;;;5048673;28;20262;-70
2023/10/23 10:41:17;;;;;;;8.30;1.50;;;20.70;68.90;;;;;;5051452;28;20183;-68
2023/10/23 10:43:52;;;;;;;5.13;1.50;;;20.60;69.10;;;;;;5048213;28;20255;-70
2023/10/23 10:46:29;;;;;;;6.70;1.10;;;20.60;69.10;;;;;;5053778;28;20195;-67
2023/10/23 10:48:57;;;;;;;7.10;1.57;;;20.70;68.90;;;;;;5048287;28;20268;-68
2023/10/23 10:51:27;;;;;;;11.80;1.87;;;20.70;68.90;;;;;;5051590;28;20180;-68
2023/10/23 10:54:03;;;;;;;6.27;1.47;;;20.60;69.00;;;;;;5053472;28;20588;-68
2023/10/23 10:56:34;;;;;;;7.23;1.47;;;20.60;69.10;;;;;;5050076;28;20183;-70
2023/10/23 10:59:02;;;;;;;6.60;1.60;;;20.60;69.20;;;;;;5050975;28;20213;-68
2023/10/23 11:01:36;;;;;;;4.30;1.00;;;20.60;69.50;;;;;;5051832;28;20683;-69
2023/10/23 11:04:05;;;;;;;4.73;1.30;;;20.60;70.00;;;;;;5052491;28;20250;-68
2023/10/23 11:06:33;;;;;;;8.73;1.80;;;20.50;70.10;;;;;;5055927;28;20201;-69
2023/10/23 11:09:01;;;;;;;4.90;1.80;;;20.50;70.30;;;;;;5054225;28;20265;-71
2023/10/23 11:11:28;;;;;;;15.07;2.00;;;20.50;70.30;;;;;;5054094;28;20184;-69
2023/10/23 11:13:59;;;;;;;6.80;1.73;;;20.50;70.50;;;;;;5055727;28;20187;-68
2023/10/23 11:16:27;;;;;;;11.03;1.93;;;20.40;70.90;;;;;;5059348;28;20187;-73
2023/10/23 11:18:56;;;;;;;5.60;1.60;;;20.40;71.00;;;;;;5053942;28;20208;-73
2023/10/23 11:21:23;;;;;;;5.40;1.33;;;20.40;71.20;;;;;;5052473;28;20710;-73
2023/10/23 11:24:00;;;;;;;5.47;1.40;;;20.30;71.40;;;;;;5053585;28;20667;-74
2023/10/23 11:26:27;;;;;;;5.67;1.67;;;20.30;71.50;;;;;;5049217;28;20290;-69
2023/10/23 11:28:55;;;;;;;12.40;1.73;;;20.30;71.50;;;;;;5052948;28;20301;-72
2023/10/23 11:31:22;;;;;;;5.13;1.50;;;20.30;71.60;;;;;;5054660;28;20198;-68
2023/10/23 11:33:55;;;;;;;5.77;1.50;;;20.30;71.40;;;;;;5048436;28;20243;-68
2023/10/23 11:36:22;;;;;;;6.60;1.33;;;20.30;71.30;;;;;;5051789;28;20244;-67
2023/10/23 11:38:50;;;;;;;7.70;2.07;;;20.30;71.10;;;;;;5051368;28;20211;-68
2023/10/23 11:41:22;;;;;;;7.03;1.67;;;20.30;71.20;;;;;;5051800;28;20211;-67
2023/10/23 11:43:49;;;;;;;10.93;1.50;;;20.20;71.10;;;;;;5051244;28;20200;-70
2023/10/23 11:46:16;;;;;;;5.13;1.20;;;20.20;71.00;;;;;;5054068;28;20269;-70
2023/10/23 11:48:46;;;;;;;11.03;2.00;;;20.20;71.10;;;;;;5052374;28;20298;-69
2023/10/23 11:51:14;;;;;;;8.90;1.50;;;20.20;71.00;;;;;;5050618;28;20251;-68
2023/10/23 11:53:41;;;;;;;8.10;1.50;;;20.20;71.20;;;;;;5053196;28;20211;-69
2023/10/23 11:56:09;;;;;;;8.57;1.40;;;20.20;71.10;;;;;;5054432;28;20566;-67
2023/10/23 11:58:37;;;;;;;4.17;1.50;;;20.20;71.50;;;;;;5054307;28;20203;-68
2023/10/23 12:01:05;;;;;;;6.10;1.70;;;20.20;71.40;;;;;;5056161;28;20283;-67
2023/10/23 12:03:32;;;;;;;11.67;1.60;;;20.20;71.50;;;;;;5055455;28;20589;-73
2023/10/23 12:05:59;;;;;;;8.07;1.37;;;20.20;71.60;;;;;;5055101;28;20183;-68
2023/10/23 12:08:27;;;;;;;11.47;1.70;;;20.10;71.60;;;;;;5057596;28;20184;-70
2023/10/23 12:10:54;;;;;;;7.50;1.60;;;20.10;71.90;;;;;;5057726;28;20248;-70
2023/10/23 12:13:21;;;;;;;5.07;1.63;;;20.00;72.10;;;;;;5051619;28;20192;-68
2023/10/23 12:15:48;;;;;;;9.03;1.67;;;20.00;72.30;;;;;;5056884;28;20191;-69
2023/10/23 12:18:17;;;;;;;10.60;2.10;;;20.00;72.40;;;;;;5051598;28;20270;-68
2023/10/23 12:20:44;;;;;;;8.30;1.80;;;20.00;72.50;;;;;;5052811;28;20192;-68
2023/10/23 12:23:11;;;;;;;12.87;2.07;;;19.90;72.40;;;;;;5053328;28;20207;-67
2023/10/23 12:25:39;;;;;;;6.37;1.70;;;19.90;72.70;;;;;;5054773;28;20184;-69
2023/10/23 12:28:06;;;;;;;8.30;1.30;;;19.90;73.00;;;;;;5053772;28;20176;-70
2023/10/23 12:30:33;;;;;;;8.30;1.80;;;19.90;73.30;;;;;;5049181;28;20187;-72
2023/10/23 12:33:03;;;;;;;6.80;1.50;;;19.90;73.50;;;;;;5050999;28;20517;-68
2023/10/23 12:35:30;;;;;;;6.67;1.43;;;19.90;73.50;;;;;;5051042;28;20247;-71
2023/10/23 12:37:58;;;;;;;5.93;1.20;;;19.80;73.10;;;;;;5050969;28;20697;-67
2023/10/23 12:40:25;;;;;;;11.57;1.83;;;19.80;73.10;;;;;;5051362;28;20211;-68
2023/10/23 12:42:52;;;;;;;10.03;1.70;;;19.80;73.10;;;;;;5053148;28;20230;-66
2023/10/23 12:45:20;;;;;;;8.73;1.93;;;19.80;73.20;;;;;;5049611;28;20184;-67
2023/10/23 12:47:47;;;;;;;5.90;1.87;;;19.80;73.20;;;;;;5054240;28;20180;-69
2023/10/23 12:50:15;;;;;;;9.90;1.90;;;19.80;73.50;;;;;;5053458;28;20180;-68
2023/10/23 12:52:42;;;;;;;8.37;2.17;;;19.70;73.50;;;;;;5052973;28;20184;-66
2023/10/23 12:55:10;;;;;;;5.70;1.90;;;19.70;73.50;;;;;;5054928;28;20184;-67
2023/10/23 12:57:37;;;;;;;5.93;1.50;;;19.70;73.50;;;;;;5053773;28;20199;-68
2023/10/23 13:00:06;;;;;;;8.60;1.77;;;19.70;73.60;;;;;;5049866;28;20203;-68